Time;durP1;ratioP1;P1;durP2;ratioP2;P2;SDS_P1;SDS_P2;PMS_P1;PMS_P2;Temp;Humidity;BMP_temperature;BMP_pressure;BME280_temperature;BME280_humidity;BME280_pressure;Samples;Min_cycle;Max_cycle;Signal;HPM_P1;HPM_P2
2022/08/10 00:01:06;;;;;;;0.95;0.80;;;;;;;;;;5064614;28;20036;-76
2022/08/10 00:03:31;;;;;;;1.58;0.98;;;;;;;;;;5063448;28;20048;-74
2022/08/10 00:05:57;;;;;;;2.08;1.00;;;;;;;;;;5062278;28;20127;-76
2022/08/10 00:08:26;;;;;;;1.85;0.80;;;;;;;;;;5067313;28;20020;-76
2022/08/10 00:10:53;;;;;;;2.63;0.90;;;;;;;;;;5062579;28;20025;-79
2022/08/10 00:13:18;;;;;;;1.77;1.17;;;;;;;;;;5063770;28;20028;-79
2022/08/10 00:15:44;;;;;;;3.03;0.88;;;;;;;;;;5062947;28;20036;-76
2022/08/10 00:18:09;;;;;;;1.70;1.00;;;;;;;;;;5062360;28;20028;-79
2022/08/10 00:20:35;;;;;;;2.47;1.17;;;;;;;;;;5063708;28;20033;-79
2022/08/10 00:23:00;;;;;;;1.42;1.00;;;;;;;;;;5063660;28;20032;-76
2022/08/10 00:25:26;;;;;;;1.92;1.13;;;;;;;;;;5064570;28;20028;-74
2022/08/10 00:27:51;;;;;;;1.67;1.08;;;;;;;;;;5063398;28;20059;-79
2022/08/10 00:30:16;;;;;;;1.75;1.10;;;;;;;;;;5069017;28;20048;-74
2022/08/10 00:32:42;;;;;;;3.50;1.20;;;;;;;;;;5064453;28;20037;-76
2022/08/10 00:35:07;;;;;;;1.95;1.20;;;;;;;;;;5064126;28;20024;-79
2022/08/10 00:37:33;;;;;;;2.20;1.45;;;;;;;;;;5073718;28;20106;-79
2022/08/10 00:39:58;;;;;;;2.80;1.48;;;;;;;;;;5064901;28;20503;-76
2022/08/10 00:42:24;;;;;;;1.90;1.35;;;;;;;;;;5061536;28;20459;-76
2022/08/10 00:44:49;;;;;;;2.17;1.40;;;;;;;;;;5067042;28;20147;-74
2022/08/10 00:47:16;;;;;;;3.40;1.60;;;;;;;;;;5060017;28;20516;-74
2022/08/10 00:49:42;;;;;;;2.20;1.50;;;;;;;;;;5066862;28;20036;-74
2022/08/10 00:52:09;;;;;;;2.25;1.45;;;;;;;;;;5053569;28;20519;-74
2022/08/10 00:54:35;;;;;;;2.70;1.60;;;;;;;;;;5059039;28;20109;-75
2022/08/10 00:57:04;;;;;;;3.03;1.52;;;;;;;;;;5062937;28;20028;-74
2022/08/10 00:59:31;;;;;;;2.90;1.73;;;;;;;;;;5060611;28;21531;-79
2022/08/10 01:01:57;;;;;;;2.47;1.52;;;;;;;;;;5060420;28;20388;-78
2022/08/10 01:04:22;;;;;;;2.78;1.95;;;;;;;;;;5061762;28;20041;-75
2022/08/10 01:06:51;;;;;;;2.47;1.50;;;;;;;;;;5061548;28;20107;-74
2022/08/10 01:09:23;;;;;;;4.18;2.20;;;;;;;;;;5064935;28;20207;-74
2022/08/10 01:11:57;;;;;;;3.35;1.90;;;;;;;;;;5059969;28;20028;-76
2022/08/10 01:14:35;;;;;;;3.10;1.92;;;;;;;;;;5063903;28;20036;-78
2022/08/10 01:17:38;;;;;;;3.58;1.90;;;;;;;;;;5051364;28;20502;-79
2022/08/10 01:20:06;;;;;;;4.50;1.80;;;;;;;;;;5030285;28;20039;-76
2022/08/10 01:22:55;;;;;;;3.47;2.20;;;;;;;;;;5055943;28;20041;-74
2022/08/10 01:25:29;;;;;;;3.17;1.90;;;;;;;;;;5057671;28;20106;-74
2022/08/10 01:28:18;;;;;;;3.42;2.15;;;;;;;;;;5059899;28;20020;-74
2022/08/10 01:30:45;;;;;;;2.90;1.80;;;;;;;;;;5061639;28;20031;-76
2022/08/10 01:33:20;;;;;;;3.33;2.03;;;;;;;;;;5063376;28;20048;-75
2022/08/10 01:35:54;;;;;;;2.90;2.00;;;;;;;;;;5075708;28;20031;-75
2022/08/10 01:38:26;;;;;;;4.18;2.00;;;;;;;;;;5062672;28;20137;-74
2022/08/10 01:41:05;;;;;;;3.42;2.03;;;;;;;;;;5059472;28;20114;-74
2022/08/10 01:43:33;;;;;;;3.38;2.10;;;;;;;;;;5064172;28;20549;-76
2022/08/10 01:46:01;;;;;;;2.63;1.98;;;;;;;;;;5060410;28;20469;-75
2022/08/10 01:48:35;;;;;;;3.55;2.30;;;;;;;;;;5063556;28;20029;-75
2022/08/10 01:51:16;;;;;;;4.10;2.15;;;;;;;;;;5059869;28;20024;-79
2022/08/10 01:53:50;;;;;;;3.20;2.00;;;;;;;;;;5060386;28;20111;-74
2022/08/10 01:56:17;;;;;;;2.92;1.85;;;;;;;;;;5062533;28;20155;-79
2022/08/10 01:58:47;;;;;;;3.67;1.90;;;;;;;;;;5064109;28;20028;-78
2022/08/10 02:01:17;;;;;;;3.47;1.92;;;;;;;;;;5062556;28;20036;-76
2022/08/10 02:03:46;;;;;;;3.53;1.95;;;;;;;;;;5063614;28;20472;-76
2022/08/10 02:06:14;;;;;;;3.70;2.10;;;;;;;;;;5066670;28;20393;-79
2022/08/10 02:08:44;;;;;;;3.58;2.00;;;;;;;;;;5065566;28;20020;-76
2022/08/10 02:11:10;;;;;;;3.08;2.00;;;;;;;;;;5066747;28;20031;-74
2022/08/10 02:13:37;;;;;;;2.88;1.85;;;;;;;;;;5065013;28;20118;-75
2022/08/10 02:16:05;;;;;;;3.70;2.08;;;;;;;;;;5071713;28;20477;-74
2022/08/10 02:18:32;;;;;;;3.20;1.70;;;;;;;;;;5064177;28;20028;-74
2022/08/10 02:21:04;;;;;;;2.75;1.80;;;;;;;;;;5068985;28;20495;-78
2022/08/10 02:23:32;;;;;;;2.53;1.80;;;;;;;;;;5061046;28;20029;-74
2022/08/10 02:25:59;;;;;;;2.88;1.90;;;;;;;;;;5058927;28;20392;-74
2022/08/10 02:28:27;;;;;;;3.40;1.73;;;;;;;;;;5066729;28;20115;-74
2022/08/10 02:30:56;;;;;;;3.22;1.83;;;;;;;;;;5071608;28;20051;-76
2022/08/10 02:33:24;;;;;;;3.85;2.17;;;;;;;;;;5060158;28;20480;-74
2022/08/10 02:35:52;;;;;;;2.97;1.77;;;;;;;;;;5064551;28;20070;-76
2022/08/10 02:38:26;;;;;;;3.70;1.52;;;;;;;;;;5067196;28;20081;-76
2022/08/10 02:40:56;;;;;;;3.00;1.70;;;;;;;;;;5066339;28;20043;-76
2022/08/10 02:43:29;;;;;;;2.53;1.65;;;;;;;;;;5066362;28;20032;-74
2022/08/10 02:46:02;;;;;;;2.13;1.60;;;;;;;;;;5064355;28;20327;-76
2022/08/10 02:48:39;;;;;;;3.08;1.73;;;;;;;;;;5070925;28;20039;-74
2022/08/10 02:51:12;;;;;;;2.53;1.80;;;;;;;;;;5063968;28;20028;-76
2022/08/10 02:53:46;;;;;;;4.07;1.77;;;;;;;;;;5068265;28;20028;-79
2022/08/10 02:56:42;;;;;;;2.10;1.55;;;;;;;;;;5057575;28;20040;-76
2022/08/10 02:59:11;;;;;;;2.80;1.60;;;;;;;;;;5060906;28;20028;-74
2022/08/10 03:01:47;;;;;;;2.50;1.58;;;;;;;;;;5062839;28;20086;-76
2022/08/10 03:04:49;;;;;;;2.85;1.50;;;;;;;;;;5066558;28;20043;-74
2022/08/10 03:07:19;;;;;;;2.70;1.73;;;;;;;;;;5063752;28;20028;-76
2022/08/10 03:09:47;;;;;;;2.30;1.50;;;;;;;;;;5069645;28;20032;-79
2022/08/10 03:12:14;;;;;;;2.17;1.52;;;;;;;;;;5061627;28;20043;-76
2022/08/10 03:14:40;;;;;;;2.38;1.70;;;;;;;;;;5061087;28;20067;-79
2022/08/10 03:17:08;;;;;;;2.97;1.70;;;;;;;;;;5062480;28;20472;-74
2022/08/10 03:19:34;;;;;;;4.18;1.80;;;;;;;;;;5061739;28;20028;-74
2022/08/10 03:22:02;;;;;;;2.30;1.58;;;;;;;;;;5061239;28;20511;-73
2022/08/10 03:24:29;;;;;;;2.72;1.65;;;;;;;;;;5067617;28;20027;-74
2022/08/10 03:26:56;;;;;;;3.08;1.90;;;;;;;;;;5066744;28;20361;-74
2022/08/10 03:29:22;;;;;;;2.33;1.50;;;;;;;;;;5066887;28;20496;-79
2022/08/10 03:31:50;;;;;;;3.03;1.63;;;;;;;;;;5062110;28;20036;-74
2022/08/10 03:34:18;;;;;;;2.90;1.48;;;;;;;;;;5062537;28;20053;-74
2022/08/10 03:36:43;;;;;;;2.90;1.60;;;;;;;;;;5066502;28;20447;-76
2022/08/10 03:39:10;;;;;;;2.35;1.60;;;;;;;;;;5064217;28;20031;-76
2022/08/10 03:41:47;;;;;;;2.17;1.60;;;;;;;;;;5058985;28;20443;-74
2022/08/10 03:44:17;;;;;;;3.13;1.58;;;;;;;;;;5062536;28;20040;-76
2022/08/10 03:46:44;;;;;;;2.22;1.60;;;;;;;;;;5065517;28;20051;-79
2022/08/10 03:49:11;;;;;;;3.00;1.90;;;;;;;;;;5064294;28;20074;-75
2022/08/10 03:51:38;;;;;;;2.25;1.65;;;;;;;;;;5057966;28;20412;-74
2022/08/10 03:54:04;;;;;;;3.28;1.52;;;;;;;;;;5063009;28;20039;-75
2022/08/10 03:56:30;;;;;;;2.28;1.60;;;;;;;;;;5059553;28;20024;-79
2022/08/10 03:58:56;;;;;;;3.33;1.75;;;;;;;;;;5070981;28;20028;-73
2022/08/10 04:01:23;;;;;;;2.58;1.80;;;;;;;;;;5068565;28;20038;-75
2022/08/10 04:03:48;;;;;;;3.30;1.70;;;;;;;;;;5056934;28;20060;-74
2022/08/10 04:06:14;;;;;;;4.55;1.60;;;;;;;;;;5063830;28;20028;-76
2022/08/10 04:08:41;;;;;;;3.63;1.60;;;;;;;;;;5064930;28;20032;-74
2022/08/10 04:11:08;;;;;;;2.55;1.80;;;;;;;;;;5057753;28;20472;-76
2022/08/10 04:13:33;;;;;;;2.72;1.80;;;;;;;;;;5058958;28;20028;-74
2022/08/10 04:15:59;;;;;;;2.53;1.70;;;;;;;;;;5066263;28;20401;-76
2022/08/10 04:18:24;;;;;;;3.50;1.90;;;;;;;;;;5064107;28;20047;-79
2022/08/10 04:20:57;;;;;;;3.03;1.80;;;;;;;;;;5067656;28;20477;-74
2022/08/10 04:23:27;;;;;;;2.65;1.75;;;;;;;;;;5063092;28;20048;-78
2022/08/10 04:25:53;;;;;;;2.55;1.58;;;;;;;;;;5064750;28;20024;-73
2022/08/10 04:28:19;;;;;;;3.55;1.73;;;;;;;;;;5064771;28;20038;-75
2022/08/10 04:30:46;;;;;;;2.75;1.80;;;;;;;;;;5069030;28;20039;-73
2022/08/10 04:33:15;;;;;;;2.45;1.88;;;;;;;;;;5065017;28;20052;-75
2022/08/10 04:35:42;;;;;;;3.33;2.05;;;;;;;;;;5067015;28;20123;-73
2022/08/10 04:38:08;;;;;;;4.18;2.13;;;;;;;;;;5065657;28;20395;-74
2022/08/10 04:40:33;;;;;;;4.72;2.30;;;;;;;;;;5064088;28;20036;-78
2022/08/10 04:43:04;;;;;;;3.67;1.90;;;;;;;;;;5064133;28;20047;-77
2022/08/10 04:45:30;;;;;;;3.10;2.03;;;;;;;;;;5066871;28;20069;-74
2022/08/10 04:47:55;;;;;;;3.25;2.38;;;;;;;;;;5069478;28;20025;-75
2022/08/10 04:50:21;;;;;;;3.35;2.00;;;;;;;;;;5056241;28;20051;-75
2022/08/10 04:52:46;;;;;;;2.95;2.15;;;;;;;;;;5063436;28;20515;-76
2022/08/10 04:55:11;;;;;;;3.20;2.15;;;;;;;;;;5060786;28;20159;-76
2022/08/10 04:57:37;;;;;;;3.65;2.22;;;;;;;;;;5058975;28;20043;-74
2022/08/10 05:00:04;;;;;;;3.85;2.10;;;;;;;;;;5062392;28;20031;-76
2022/08/10 05:02:30;;;;;;;3.50;2.30;;;;;;;;;;5065207;28;20064;-78
2022/08/10 05:04:55;;;;;;;3.63;2.30;;;;;;;;;;5066973;28;20118;-79
2022/08/10 05:07:20;;;;;;;3.20;2.13;;;;;;;;;;5062709;28;20043;-78
2022/08/10 05:09:47;;;;;;;3.30;2.20;;;;;;;;;;5059462;28;20035;-73
2022/08/10 05:12:13;;;;;;;3.30;2.20;;;;;;;;;;5055104;28;20016;-76
2022/08/10 05:14:38;;;;;;;3.83;2.10;;;;;;;;;;5063359;28;20494;-73
2022/08/10 05:17:03;;;;;;;3.78;2.55;;;;;;;;;;5063371;28;20374;-74
2022/08/10 05:19:29;;;;;;;3.65;2.40;;;;;;;;;;5055027;28;20741;-76
2022/08/10 05:21:54;;;;;;;4.53;2.72;;;;;;;;;;5065304;28;20058;-75
2022/08/10 05:24:19;;;;;;;3.88;2.30;;;;;;;;;;5058781;28;20044;-76
2022/08/10 05:26:45;;;;;;;6.05;2.70;;;;;;;;;;5060003;28;20032;-74
2022/08/10 05:29:10;;;;;;;4.13;2.47;;;;;;;;;;5064311;28;20031;-76
2022/08/10 05:31:36;;;;;;;4.18;2.60;;;;;;;;;;5062018;28;20029;-74
2022/08/10 05:34:01;;;;;;;4.38;2.63;;;;;;;;;;5069547;28;20053;-74
2022/08/10 05:36:28;;;;;;;5.80;2.80;;;;;;;;;;5063742;28;20530;-76
2022/08/10 05:38:54;;;;;;;4.93;3.08;;;;;;;;;;5068261;28;20035;-79
2022/08/10 05:41:20;;;;;;;5.43;3.20;;;;;;;;;;5065694;28;20033;-77
2022/08/10 05:43:46;;;;;;;5.22;3.13;;;;;;;;;;5069236;28;20475;-74
2022/08/10 05:46:11;;;;;;;5.45;2.75;;;;;;;;;;5058947;28;20032;-76
2022/08/10 05:48:38;;;;;;;4.93;3.00;;;;;;;;;;5065298;28;20063;-78
2022/08/10 05:51:04;;;;;;;5.32;2.90;;;;;;;;;;5059784;28;20031;-73
2022/08/10 05:53:32;;;;;;;5.53;3.55;;;;;;;;;;5073281;28;20418;-74
2022/08/10 05:55:58;;;;;;;5.38;3.20;;;;;;;;;;5064529;28;20021;-78
2022/08/10 05:58:24;;;;;;;5.63;3.45;;;;;;;;;;5075946;28;20032;-76
2022/08/10 06:00:54;;;;;;;4.95;2.92;;;;;;;;;;5071820;28;20704;-76
2022/08/10 06:03:26;;;;;;;4.28;3.15;;;;;;;;;;5070474;28;20047;-74
2022/08/10 06:05:55;;;;;;;5.83;3.53;;;;;;;;;;5066680;28;20028;-76
2022/08/10 06:08:27;;;;;;;4.80;3.10;;;;;;;;;;5064922;28;20031;-74
2022/08/10 06:10:54;;;;;;;7.75;3.25;;;;;;;;;;5061462;28;20029;-76
2022/08/10 06:16:07;;;;;;;7.60;3.40;;;;;;;;;;5071380;28;20081;-76
2022/08/10 06:18:34;;;;;;;5.10;3.30;;;;;;;;;;5061152;28;20033;-77
2022/08/10 06:21:00;;;;;;;5.15;3.72;;;;;;;;;;5067197;28;20026;-75
2022/08/10 06:23:28;;;;;;;4.32;3.20;;;;;;;;;;5063375;28;20032;-76
2022/08/10 06:25:54;;;;;;;5.65;3.75;;;;;;;;;;5075958;28;20028;-87
2022/08/10 06:28:21;;;;;;;5.28;3.22;;;;;;;;;;5069085;28;20028;-78
2022/08/10 06:30:48;;;;;;;6.30;3.20;;;;;;;;;;5070834;28;20029;-80
2022/08/10 06:33:16;;;;;;;4.55;3.20;;;;;;;;;;5082178;28;20068;-74
2022/08/10 06:35:42;;;;;;;5.00;3.17;;;;;;;;;;5068613;28;20522;-73
2022/08/10 06:38:10;;;;;;;5.07;3.50;;;;;;;;;;5060363;28;20158;-80
2022/08/10 06:40:38;;;;;;;7.65;3.85;;;;;;;;;;5068269;28;20021;-80
2022/08/10 06:43:06;;;;;;;6.70;3.50;;;;;;;;;;5068434;28;20058;-87
2022/08/10 06:45:38;;;;;;;6.65;3.90;;;;;;;;;;5075492;28;20039;-75
2022/08/10 06:48:03;;;;;;;5.63;3.25;;;;;;;;;;5060351;28;20055;-80
2022/08/10 06:50:38;;;;;;;5.30;3.80;;;;;;;;;;5066363;28;20130;-87
2022/08/10 06:53:11;;;;;;;5.82;3.88;;;;;;;;;;5069078;28;20029;-73
2022/08/10 06:55:42;;;;;;;5.45;3.75;;;;;;;;;;5068528;28;20039;-77
2022/08/10 06:58:08;;;;;;;6.88;4.38;;;;;;;;;;5063953;28;20063;-80
2022/08/10 07:00:37;;;;;;;5.20;3.60;;;;;;;;;;5057618;28;20064;-76
2022/08/10 07:03:08;;;;;;;5.85;3.70;;;;;;;;;;5069155;28;20029;-76
2022/08/10 07:05:38;;;;;;;5.65;3.55;;;;;;;;;;5066841;28;20103;-75
2022/08/10 07:08:04;;;;;;;6.18;3.97;;;;;;;;;;5053571;28;20057;-75
2022/08/10 07:10:30;;;;;;;6.60;3.75;;;;;;;;;;5062218;28;20033;-85
2022/08/10 07:12:59;;;;;;;5.93;3.40;;;;;;;;;;5062867;28;20377;-74
2022/08/10 07:15:25;;;;;;;5.82;4.10;;;;;;;;;;5062966;28;20024;-76
2022/08/10 07:17:51;;;;;;;4.63;3.35;;;;;;;;;;5059981;28;20073;-82
2022/08/10 07:20:19;;;;;;;7.70;3.67;;;;;;;;;;5057070;28;20089;-79
2022/08/10 07:22:48;;;;;;;5.75;3.33;;;;;;;;;;5057167;28;20024;-77
2022/08/10 07:25:20;;;;;;;5.68;3.33;;;;;;;;;;5062599;28;20036;-75
2022/08/10 07:27:48;;;;;;;5.93;3.30;;;;;;;;;;5061685;28;20071;-80
2022/08/10 07:30:14;;;;;;;8.48;3.60;;;;;;;;;;5055733;28;20085;-84
2022/08/10 07:32:43;;;;;;;6.03;3.65;;;;;;;;;;5019867;28;1097980;-75
2022/08/10 07:35:12;;;;;;;5.97;3.50;;;;;;;;;;5060337;28;20054;-74
2022/08/10 07:37:39;;;;;;;6.28;3.70;;;;;;;;;;5068282;28;20028;-73
2022/08/10 07:40:07;;;;;;;4.97;3.35;;;;;;;;;;5062767;28;20016;-75
2022/08/10 07:42:35;;;;;;;6.75;3.45;;;;;;;;;;5060174;28;20091;-75
2022/08/10 07:45:02;;;;;;;4.88;3.10;;;;;;;;;;5060898;28;20062;-82
2022/08/10 07:47:33;;;;;;;7.30;2.95;;;;;;;;;;5070235;28;20043;-75
2022/08/10 07:50:04;;;;;;;6.65;2.72;;;;;;;;;;5063220;28;20027;-87
2022/08/10 07:52:32;;;;;;;4.97;3.03;;;;;;;;;;5071458;28;20036;-75
2022/08/10 07:55:01;;;;;;;4.97;2.78;;;;;;;;;;5063260;28;20075;-75
2022/08/10 07:57:29;;;;;;;4.13;2.63;;;;;;;;;;5061245;28;20187;-81
2022/08/10 07:59:58;;;;;;;4.40;2.70;;;;;;;;;;5059624;28;20102;-84
2022/08/10 08:02:30;;;;;;;4.03;2.20;;;;;;;;;;5065304;28;20089;-73
2022/08/10 08:04:59;;;;;;;4.03;2.20;;;;;;;;;;5068205;28;20492;-74
2022/08/10 08:07:26;;;;;;;5.70;2.70;;;;;;;;;;5069546;28;20488;-80
2022/08/10 08:09:54;;;;;;;4.13;2.58;;;;;;;;;;5060961;28;20024;-84
2022/08/10 08:12:20;;;;;;;5.47;2.80;;;;;;;;;;5062357;28;20028;-75
2022/08/10 08:14:47;;;;;;;4.20;2.17;;;;;;;;;;5065612;28;20078;-80
2022/08/10 08:17:15;;;;;;;5.25;2.80;;;;;;;;;;5062909;28;20038;-78
2022/08/10 08:19:45;;;;;;;4.25;2.50;;;;;;;;;;5066118;28;20024;-81
2022/08/10 08:22:11;;;;;;;3.88;2.50;;;;;;;;;;5062673;28;21120;-83
2022/08/10 08:24:37;;;;;;;3.95;2.08;;;;;;;;;;5060087;28;20025;-84
2022/08/10 08:27:04;;;;;;;3.70;2.40;;;;;;;;;;5065573;28;20035;-74
2022/08/10 08:29:34;;;;;;;4.70;2.15;;;;;;;;;;5063207;28;20024;-84
2022/08/10 08:32:01;;;;;;;3.85;2.10;;;;;;;;;;5070841;28;20059;-80
2022/08/10 08:34:27;;;;;;;3.35;1.90;;;;;;;;;;5068381;28;20028;-74
2022/08/10 08:36:53;;;;;;;3.35;1.92;;;;;;;;;;5059985;28;20047;-73
2022/08/10 08:39:19;;;;;;;2.95;1.95;;;;;;;;;;5062212;28;20037;-79
2022/08/10 08:41:57;;;;;;;5.38;2.38;;;;;;;;;;5066098;28;20035;-86
2022/08/10 08:44:33;;;;;;;2.78;1.70;;;;;;;;;;5069554;28;20038;-74
2022/08/10 08:47:08;;;;;;;6.55;1.92;;;;;;;;;;5067169;28;20066;-76
2022/08/10 08:49:49;;;;;;;5.68;2.03;;;;;;;;;;5059166;28;20118;-74
2022/08/10 08:52:32;;;;;;;3.22;1.83;;;;;;;;;;5071379;28;20099;-80
2022/08/10 08:55:06;;;;;;;6.95;2.25;;;;;;;;;;5064888;28;20384;-80
2022/08/10 08:58:02;;;;;;;3.13;1.77;;;;;;;;;;5064848;28;20535;-74
2022/08/10 09:00:52;;;;;;;3.92;2.15;;;;;;;;;;5068178;28;20028;-80
2022/08/10 09:03:55;;;;;;;2.92;1.60;;;;;;;;;;5071228;28;20455;-85
2022/08/10 09:06:32;;;;;;;2.45;1.38;;;;;;;;;;5066848;28;20029;-74
2022/08/10 09:09:25;;;;;;;3.03;1.67;;;;;;;;;;5064567;28;20032;-75
2022/08/10 09:12:42;;;;;;;2.85;1.63;;;;;;;;;;5064251;28;20028;-76
2022/08/10 09:15:32;;;;;;;2.95;1.60;;;;;;;;;;5036202;28;20040;-84
2022/08/10 09:18:15;;;;;;;3.15;1.50;;;;;;;;;;5062465;28;20511;-75
2022/08/10 09:20:52;;;;;;;2.78;1.75;;;;;;;;;;5061760;28;20026;-75
2022/08/10 09:23:44;;;;;;;4.07;1.90;;;;;;;;;;5061162;28;20511;-75
2022/08/10 09:26:20;;;;;;;3.20;1.70;;;;;;;;;;5066794;28;20020;-79
2022/08/10 09:28:48;;;;;;;3.28;2.00;;;;;;;;;;5078392;28;20546;-74
2022/08/10 09:31:19;;;;;;;4.40;1.75;;;;;;;;;;5072731;28;20025;-80
2022/08/10 09:33:53;;;;;;;4.15;1.70;;;;;;;;;;5069613;28;20055;-85
2022/08/10 09:36:35;;;;;;;9.23;1.88;;;;;;;;;;5058925;28;20028;-76
2022/08/10 09:39:03;;;;;;;3.88;1.80;;;;;;;;;;5056489;28;20464;-75
2022/08/10 09:41:34;;;;;;;2.85;1.63;;;;;;;;;;5067933;28;20024;-74
2022/08/10 09:44:12;;;;;;;3.70;1.67;;;;;;;;;;5063958;28;20400;-74
2022/08/10 09:47:04;;;;;;;4.10;1.90;;;;;;;;;;5063471;28;20123;-76
2022/08/10 09:50:06;;;;;;;3.58;1.90;;;;;;;;;;5066335;28;20063;-74
2022/08/10 09:52:59;;;;;;;2.75;1.58;;;;;;;;;;5058839;28;20535;-74
2022/08/10 09:55:49;;;;;;;2.65;1.40;;;;;;;;;;5061828;28;20447;-76
2022/08/10 09:58:33;;;;;;;5.18;1.80;;;;;;;;;;5062358;28;20438;-75
2022/08/10 10:01:20;;;;;;;3.28;1.63;;;;;;;;;;5053897;28;20491;-76
2022/08/10 10:04:16;;;;;;;6.03;1.90;;;;;;;;;;5062504;28;20592;-76
2022/08/10 10:07:01;;;;;;;2.33;1.50;;;;;;;;;;5063694;28;20027;-74
2022/08/10 10:09:33;;;;;;;3.00;1.77;;;;;;;;;;5060592;28;20081;-75
2022/08/10 10:12:27;;;;;;;4.78;1.77;;;;;;;;;;5058801;28;20039;-80
2022/08/10 10:15:20;;;;;;;3.13;1.52;;;;;;;;;;5059367;28;20042;-75
2022/08/10 10:18:01;;;;;;;3.33;1.67;;;;;;;;;;5057506;28;20386;-75
2022/08/10 10:20:48;;;;;;;3.45;1.75;;;;;;;;;;5056738;28;20481;-75
2022/08/10 10:23:32;;;;;;;3.28;1.60;;;;;;;;;;5066486;28;20473;-77
2022/08/10 10:26:05;;;;;;;3.63;1.50;;;;;;;;;;5066038;28;20091;-75
2022/08/10 10:28:57;;;;;;;3.05;1.60;;;;;;;;;;5070962;28;20029;-79
2022/08/10 10:31:29;;;;;;;3.65;1.55;;;;;;;;;;5065007;28;20063;-76
2022/08/10 10:33:57;;;;;;;2.33;1.58;;;;;;;;;;5070956;28;20044;-74
2022/08/10 10:36:23;;;;;;;2.88;1.40;;;;;;;;;;5070215;28;20064;-74
2022/08/10 10:38:50;;;;;;;2.88;1.58;;;;;;;;;;5072104;28;20476;-77
2022/08/10 10:41:42;;;;;;;2.92;1.60;;;;;;;;;;5069350;28;20083;-75
2022/08/10 10:45:06;;;;;;;2.38;1.50;;;;;;;;;;5061756;28;20035;-75
2022/08/10 10:48:03;;;;;;;2.55;1.50;;;;;;;;;;5047363;28;20055;-73
2022/08/10 10:50:59;;;;;;;3.47;1.55;;;;;;;;;;5061819;28;20024;-74
2022/08/10 10:53:38;;;;;;;3.72;1.50;;;;;;;;;;5063658;28;20025;-74
2022/08/10 10:56:12;;;;;;;2.88;1.65;;;;;;;;;;5068154;28;20465;-76
2022/08/10 10:58:52;;;;;;;2.63;1.70;;;;;;;;;;5067866;28;20405;-76
2022/08/10 11:01:28;;;;;;;2.55;1.67;;;;;;;;;;5067829;28;20040;-76
2022/08/10 11:04:20;;;;;;;3.20;1.60;;;;;;;;;;5071821;28;20079;-74
2022/08/10 11:07:04;;;;;;;3.38;1.80;;;;;;;;;;5073195;28;20020;-74
2022/08/10 11:09:41;;;;;;;2.50;1.60;;;;;;;;;;5059289;28;20025;-73
2022/08/10 11:12:32;;;;;;;2.92;1.58;;;;;;;;;;5067575;28;20024;-77
2022/08/10 11:15:08;;;;;;;2.70;1.65;;;;;;;;;;5072312;28;20032;-79
2022/08/10 11:17:53;;;;;;;2.65;1.60;;;;;;;;;;5053630;28;20040;-80
2022/08/10 11:20:35;;;;;;;3.60;1.52;;;;;;;;;;5076905;28;20054;-79
2022/08/10 11:23:07;;;;;;;2.03;1.58;;;;;;;;;;5063136;28;20056;-80
2022/08/10 11:25:40;;;;;;;3.72;1.60;;;;;;;;;;5068147;28;20039;-81
2022/08/10 11:28:54;;;;;;;2.38;1.60;;;;;;;;;;5069893;28;20028;-82
2022/08/10 11:31:34;;;;;;;2.78;1.70;;;;;;;;;;5002931;28;20044;-80
2022/08/10 11:34:05;;;;;;;4.45;1.77;;;;;;;;;;5079595;28;20051;-79
2022/08/10 11:36:46;;;;;;;2.30;1.60;;;;;;;;;;5069347;28;20082;-79
2022/08/10 11:39:25;;;;;;;6.72;1.90;;;;;;;;;;5057261;28;20029;-79
2022/08/10 11:42:02;;;;;;;2.28;1.58;;;;;;;;;;5070395;28;20059;-79
2022/08/10 11:44:36;;;;;;;5.78;1.77;;;;;;;;;;5066736;28;20028;-81
2022/08/10 11:47:13;;;;;;;2.90;1.70;;;;;;;;;;5066020;28;20031;-80
2022/08/10 11:49:48;;;;;;;2.17;1.48;;;;;;;;;;5070601;28;20806;-77
2022/08/10 11:52:21;;;;;;;2.60;1.52;;;;;;;;;;5069648;28;20412;-81
2022/08/10 11:54:54;;;;;;;2.67;1.63;;;;;;;;;;5059380;28;20032;-77
2022/08/10 11:57:26;;;;;;;2.92;1.67;;;;;;;;;;5066177;28;20388;-80
2022/08/10 11:59:55;;;;;;;;;;;;;;;;;;5063011;28;20499;-83
2022/08/10 12:02:23;;;;;;;2.50;1.70;;;;;;;;;;5059888;28;19916;-78
2022/08/10 12:04:54;;;;;;;3.22;1.60;;;;;;;;;;5063222;28;20032;-78
2022/08/10 12:07:20;;;;;;;2.75;1.48;;;;;;;;;;5066997;28;20035;-79
2022/08/10 12:09:48;;;;;;;2.47;1.40;;;;;;;;;;5065353;28;20468;-79
2022/08/10 12:12:14;;;;;;;2.47;1.50;;;;;;;;;;5064854;28;20020;-78
2022/08/10 12:15:00;;;;;;;1.90;1.48;;;;;;;;;;5065534;28;20155;-78
2022/08/10 12:17:32;;;;;;;2.78;1.42;;;;;;;;;;5061877;28;20388;-80
2022/08/10 12:20:15;;;;;;;3.28;1.42;;;;;;;;;;5057405;28;20082;-79
2022/08/10 12:22:58;;;;;;;2.10;1.50;;;;;;;;;;5057225;28;20041;-84
2022/08/10 12:25:36;;;;;;;2.53;1.30;;;;;;;;;;5062828;28;20036;-79
2022/08/10 12:28:20;;;;;;;2.38;1.50;;;;;;;;;;5062004;28;20131;-80
2022/08/10 12:30:52;;;;;;;1.75;1.33;;;;;;;;;;5060500;28;20052;-79
2022/08/10 12:33:20;;;;;;;4.28;1.40;;;;;;;;;;5061431;28;20086;-79
2022/08/10 12:36:01;;;;;;;1.98;1.35;;;;;;;;;;5059775;28;20519;-82
2022/08/10 12:38:38;;;;;;;3.78;1.50;;;;;;;;;;5059414;28;20060;-79
2022/08/10 12:41:15;;;;;;;2.97;1.42;;;;;;;;;;5067849;28;20047;-79
2022/08/10 12:43:47;;;;;;;2.35;1.50;;;;;;;;;;5068131;28;20033;-80
2022/08/10 12:46:37;;;;;;;4.22;1.70;;;;;;;;;;5060353;28;20061;-83
2022/08/10 12:49:24;;;;;;;4.25;1.80;;;;;;;;;;5061216;28;20119;-78
2022/08/10 12:52:15;;;;;;;2.40;1.55;;;;;;;;;;5059431;28;20024;-80
2022/08/10 12:54:43;;;;;;;1.60;1.15;;;;;;;;;;5066472;28;20477;-79
2022/08/10 12:57:11;;;;;;;3.22;1.55;;;;;;;;;;5070323;28;20029;-79
2022/08/10 12:59:42;;;;;;;2.90;1.27;;;;;;;;;;5065218;28;20131;-83
2022/08/10 13:02:13;;;;;;;2.22;1.60;;;;;;;;;;5067998;28;20036;-80
2022/08/10 13:04:41;;;;;;;2.53;1.60;;;;;;;;;;5064548;28;20055;-79
2022/08/10 13:07:09;;;;;;;3.10;1.65;;;;;;;;;;5063389;28;20028;-83
2022/08/10 13:09:35;;;;;;;2.75;1.42;;;;;;;;;;5066587;28;20033;-78
2022/08/10 13:12:14;;;;;;;3.63;1.67;;;;;;;;;;5072002;28;20461;-80
2022/08/10 13:14:58;;;;;;;2.30;1.40;;;;;;;;;;5062463;28;20124;-80
2022/08/10 13:17:32;;;;;;;2.28;1.50;;;;;;;;;;5064760;28;20667;-80
2022/08/10 13:20:04;;;;;;;3.25;1.30;;;;;;;;;;5065140;28;20024;-78
2022/08/10 13:22:33;;;;;;;2.22;1.50;;;;;;;;;;5068458;28;20131;-83
2022/08/10 13:25:02;;;;;;;2.22;1.58;;;;;;;;;;5064095;28;20388;-83
2022/08/10 13:27:36;;;;;;;2.28;1.20;;;;;;;;;;5064004;28;21040;-79
2022/08/10 13:30:05;;;;;;;3.25;1.42;;;;;;;;;;5061364;28;20485;-78
2022/08/10 13:32:32;;;;;;;3.55;1.30;;;;;;;;;;5062724;28;20060;-78
2022/08/10 13:35:02;;;;;;;2.17;1.48;;;;;;;;;;5062156;28;20408;-78
2022/08/10 13:37:30;;;;;;;1.70;1.40;;;;;;;;;;5075885;28;20032;-79
2022/08/10 13:39:59;;;;;;;2.47;1.40;;;;;;;;;;5064419;28;20025;-79
2022/08/10 13:42:28;;;;;;;1.60;1.20;;;;;;;;;;5066938;28;20059;-80
2022/08/10 13:44:57;;;;;;;2.47;1.30;;;;;;;;;;5060873;28;20094;-80
2022/08/10 13:47:32;;;;;;;4.82;1.30;;;;;;;;;;5063858;28;20108;-79
2022/08/10 13:50:07;;;;;;;1.85;1.23;;;;;;;;;;5055813;28;20495;-80
2022/08/10 13:52:35;;;;;;;3.60;1.38;;;;;;;;;;5063556;28;20102;-78
2022/08/10 13:55:13;;;;;;;2.25;1.38;;;;;;;;;;5068633;28;20067;-83
2022/08/10 13:57:47;;;;;;;2.03;1.20;;;;;;;;;;5066901;28;20041;-82
2022/08/10 14:00:13;;;;;;;1.60;1.15;;;;;;;;;;5064323;28;20413;-77
2022/08/10 14:02:57;;;;;;;1.80;1.48;;;;;;;;;;5069200;28;20119;-80
2022/08/10 14:05:27;;;;;;;2.70;1.02;;;;;;;;;;5070350;28;20081;-83
2022/08/10 14:07:54;;;;;;;2.03;1.15;;;;;;;;;;5071244;28;20021;-80
2022/08/10 14:10:57;;;;;;;1.65;1.00;;;;;;;;;;5068307;28;20028;-79
2022/08/10 14:13:26;;;;;;;1.65;1.00;;;;;;;;;;5071314;28;20024;-85
2022/08/10 14:15:52;;;;;;;2.40;1.08;;;;;;;;;;5072501;28;20027;-83
2022/08/10 14:18:18;;;;;;;2.05;1.20;;;;;;;;;;5073074;28;20089;-83
2022/08/10 14:20:49;;;;;;;1.95;1.20;;;;;;;;;;5068095;28;20043;-79
2022/08/10 14:23:15;;;;;;;1.40;0.93;;;;;;;;;;5067898;28;20111;-79
2022/08/10 14:26:02;;;;;;;3.47;1.15;;;;;;;;;;5062436;28;20112;-78
2022/08/10 14:28:46;;;;;;;3.38;1.30;;;;;;;;;;5078663;28;20028;-80
2022/08/10 14:31:15;;;;;;;2.80;0.98;;;;;;;;;;5068704;28;20051;-79
2022/08/10 14:33:43;;;;;;;2.47;1.10;;;;;;;;;;5066621;28;20040;-79
2022/08/10 14:36:10;;;;;;;2.75;1.10;;;;;;;;;;5067077;28;20051;-79
2022/08/10 14:38:37;;;;;;;1.65;1.00;;;;;;;;;;5065159;28;20024;-78
2022/08/10 14:41:14;;;;;;;1.83;1.05;;;;;;;;;;5068470;28;20040;-78
2022/08/10 14:43:41;;;;;;;2.10;1.27;;;;;;;;;;5061493;28;20036;-84
2022/08/10 14:46:13;;;;;;;1.92;1.08;;;;;;;;;;5062637;28;20026;-79
2022/08/10 14:48:42;;;;;;;2.25;1.10;;;;;;;;;;5059792;28;20032;-79
2022/08/10 14:51:09;;;;;;;1.45;1.00;;;;;;;;;;5080502;28;20568;-83
2022/08/10 14:53:38;;;;;;;2.60;1.23;;;;;;;;;;5072548;28;20024;-78
2022/08/10 14:56:08;;;;;;;2.88;1.15;;;;;;;;;;5064687;28;20032;-79
2022/08/10 14:58:51;;;;;;;1.65;1.05;;;;;;;;;;5069598;28;20024;-79
2022/08/10 15:01:18;;;;;;;1.88;0.93;;;;;;;;;;5067994;28;20037;-81
2022/08/10 15:03:47;;;;;;;3.03;1.05;;;;;;;;;;5067614;28;20033;-79
2022/08/10 15:06:15;;;;;;;1.60;1.00;;;;;;;;;;5067556;28;20050;-79
2022/08/10 15:08:43;;;;;;;2.03;1.20;;;;;;;;;;5063598;28;20028;-79
2022/08/10 15:11:10;;;;;;;2.40;1.00;;;;;;;;;;5067053;28;20476;-78
2022/08/10 15:13:42;;;;;;;1.40;1.00;;;;;;;;;;5071111;28;20021;-81
2022/08/10 15:16:08;;;;;;;2.88;1.00;;;;;;;;;;5071415;28;20041;-79